createdAt,value
2023-01-19T00:00:53.744Z,5.07
2023-01-19T00:03:20.727Z,5.75
2023-01-19T00:05:47.599Z,5.17
2023-01-19T00:08:17.575Z,5.50
2023-01-19T00:10:47.192Z,5.10
2023-01-19T00:13:15.358Z,5.30
2023-01-19T00:15:42.797Z,5.43
2023-01-19T00:18:10.907Z,5.10
2023-01-19T00:20:41.912Z,5.43
2023-01-19T00:23:08.838Z,5.72
2023-01-19T00:25:42.290Z,5.78
2023-01-19T00:28:13.082Z,5.25
2023-01-19T00:30:40.469Z,5.20
2023-01-19T00:33:07.157Z,5.90
2023-01-19T00:35:35.214Z,6.07
2023-01-19T00:38:02.740Z,5.40
2023-01-19T00:40:29.598Z,5.68
2023-01-19T00:42:56.277Z,5.57
2023-01-19T00:45:24.432Z,5.85
2023-01-19T00:47:57.153Z,5.70
2023-01-19T00:50:25.572Z,5.80
2023-01-19T00:52:53.709Z,5.90
2023-01-19T00:55:20.504Z,5.77
2023-01-19T00:57:47.674Z,6.05
2023-01-19T01:00:19.922Z,6.13
2023-01-19T01:02:47.984Z,5.93
2023-01-19T01:05:15.305Z,5.90
2023-01-19T01:07:42.877Z,6.67
2023-01-19T01:10:12.142Z,6.75
2023-01-19T01:12:39.301Z,7.07
2023-01-19T01:15:11.226Z,6.57
2023-01-19T01:17:38.293Z,6.50
2023-01-19T01:20:05.488Z,6.05
2023-01-19T01:22:32.281Z,6.95
2023-01-19T01:24:59.039Z,6.55
2023-01-19T01:27:25.765Z,6.50
2023-01-19T01:29:52.521Z,6.65
2023-01-19T01:32:19.193Z,6.63
2023-01-19T01:34:46.011Z,6.65
2023-01-19T01:37:12.737Z,6.50
2023-01-19T01:39:39.467Z,6.25
2023-01-19T01:42:16.040Z,6.63
2023-01-19T01:44:52.592Z,6.47
2023-01-19T01:47:42.857Z,7.68
2023-01-19T01:50:20.967Z,6.90
2023-01-19T01:53:07.709Z,6.70
2023-01-19T01:55:44.865Z,6.93
2023-01-19T01:58:12.546Z,6.80
2023-01-19T02:00:58.793Z,7.00
2023-01-19T02:03:26.429Z,7.22
2023-01-19T02:05:57.613Z,7.03
2023-01-19T02:09:05.194Z,7.95
2023-01-19T02:11:51.413Z,6.27
2023-01-19T02:14:19.101Z,7.82
2023-01-19T02:16:46.716Z,7.55
2023-01-19T02:19:19.361Z,7.38
2023-01-19T02:22:01.775Z,7.47
2023-01-19T02:24:29.360Z,7.77
2023-01-19T02:26:56.828Z,6.65
2023-01-19T02:29:26.025Z,6.78
2023-01-19T02:31:53.969Z,6.70
2023-01-19T02:34:21.616Z,7.50
2023-01-19T02:36:54.284Z,7.00
2023-01-19T02:39:27.968Z,7.55
2023-01-19T02:42:01.392Z,7.68
2023-01-19T02:44:30.363Z,7.47
2023-01-19T02:46:57.592Z,7.25
2023-01-19T02:49:28.643Z,7.30
2023-01-19T02:51:55.950Z,8.50
2023-01-19T02:54:41.053Z,8.52
2023-01-19T02:57:24.247Z,7.75
2023-01-19T03:00:02.831Z,7.95
2023-01-19T03:02:46.530Z,7.73
2023-01-19T03:05:21.968Z,7.85
2023-01-19T03:08:19.044Z,7.90
2023-01-19T03:10:51.741Z,8.40
2023-01-19T03:13:34.527Z,7.80
2023-01-19T03:16:01.340Z,8.30
2023-01-19T03:18:30.924Z,8.35
2023-01-19T03:21:00.591Z,8.70
2023-01-19T03:23:30.660Z,7.90
2023-01-19T03:25:59.663Z,8.50
2023-01-19T03:28:29.381Z,8.57
2023-01-19T03:31:05.325Z,7.75
2023-01-19T03:33:34.268Z,9.10
2023-01-19T03:36:10.458Z,8.52
2023-01-19T03:38:38.546Z,8.13
2023-01-19T03:41:10.867Z,9.07
2023-01-19T03:43:39.785Z,8.70
2023-01-19T03:46:08.295Z,8.88
2023-01-19T03:48:35.383Z,8.90
2023-01-19T03:51:08.466Z,9.60
2023-01-19T03:53:35.440Z,9.83
2023-01-19T03:56:02.440Z,8.85
2023-01-19T03:58:29.405Z,8.88
2023-01-19T04:00:56.213Z,8.57
2023-01-19T04:03:23.098Z,10.15
2023-01-19T04:05:49.834Z,9.40
2023-01-19T04:08:16.574Z,8.98
2023-01-19T04:10:43.307Z,9.48
2023-01-19T04:13:10.585Z,9.70
2023-01-19T04:15:37.370Z,9.32
2023-01-19T04:18:05.268Z,9.57
2023-01-19T04:20:32.062Z,10.23
2023-01-19T04:23:00.838Z,10.68
2023-01-19T04:25:28.865Z,9.93
2023-01-19T04:27:57.973Z,8.73
2023-01-19T04:30:25.088Z,9.47
2023-01-19T04:32:51.948Z,9.98
2023-01-19T04:35:19.442Z,10.05
2023-01-19T04:37:46.279Z,9.25
2023-01-19T04:40:13.094Z,9.90
2023-01-19T04:42:44.895Z,9.63
2023-01-19T04:45:14.466Z,9.88
2023-01-19T04:47:42.683Z,10.20
2023-01-19T04:50:10.941Z,10.32
2023-01-19T04:52:37.824Z,10.75
2023-01-19T04:55:06.660Z,9.87
2023-01-19T04:57:33.579Z,10.73
2023-01-19T05:00:00.408Z,10.75
2023-01-19T05:02:27.683Z,9.98
2023-01-19T05:04:54.526Z,10.15
2023-01-19T05:07:21.326Z,9.87
2023-01-19T05:09:48.109Z,10.25
2023-01-19T05:12:15.138Z,9.95
2023-01-19T05:14:41.898Z,10.38
2023-01-19T05:17:08.753Z,9.60
2023-01-19T05:19:35.573Z,9.90
2023-01-19T05:22:04.218Z,10.05
2023-01-19T05:24:31.069Z,10.15
2023-01-19T05:26:58.929Z,9.73
2023-01-19T05:29:25.741Z,10.85
2023-01-19T05:31:52.455Z,10.03
2023-01-19T05:34:19.442Z,9.98
2023-01-19T05:36:46.270Z,10.02
2023-01-19T05:39:13.175Z,10.68
2023-01-19T05:41:40.378Z,10.77
2023-01-19T05:44:07.106Z,8.83
2023-01-19T05:46:34.895Z,10.02
2023-01-19T05:49:04.260Z,10.80
2023-01-19T05:51:35.162Z,10.90
2023-01-19T05:54:02.307Z,11.27
2023-01-19T05:56:29.392Z,10.87
2023-01-19T05:58:56.148Z,9.98
2023-01-19T06:01:23.008Z,11.77
2023-01-19T06:03:49.832Z,10.70
2023-01-19T06:06:17.187Z,11.52
2023-01-19T06:08:44.740Z,11.63
2023-01-19T06:11:12.240Z,10.52
2023-01-19T06:13:42.259Z,11.52
2023-01-19T06:16:09.701Z,12.18
2023-01-19T06:18:36.684Z,11.63
2023-01-19T06:21:05.746Z,11.90
2023-01-19T06:23:33.959Z,13.07
2023-01-19T06:26:01.090Z,12.50
2023-01-19T06:28:28.182Z,13.43
2023-01-19T06:30:56.190Z,13.07
2023-01-19T06:33:25.201Z,12.10
2023-01-19T06:35:52.279Z,11.82
2023-01-19T06:38:19.449Z,12.52
2023-01-19T06:40:53.324Z,12.15
2023-01-19T06:43:20.506Z,12.02
2023-01-19T06:45:47.925Z,12.83
2023-01-19T06:48:15.156Z,13.27
2023-01-19T06:50:42.172Z,13.30
2023-01-19T06:53:08.896Z,12.02
2023-01-19T06:55:36.520Z,12.38
2023-01-19T06:58:03.339Z,14.43
2023-01-19T07:00:30.570Z,13.20
2023-01-19T07:02:57.488Z,12.95
2023-01-19T07:05:24.524Z,13.65
2023-01-19T07:07:55.985Z,13.20
2023-01-19T07:10:24.670Z,13.43
2023-01-19T07:12:51.811Z,14.65
2023-01-19T07:15:19.857Z,15.05
2023-01-19T07:17:46.724Z,14.13
2023-01-19T07:20:14.618Z,13.85
2023-01-19T07:22:46.667Z,14.20
2023-01-19T07:25:14.788Z,14.20
2023-01-19T07:27:41.735Z,13.98
2023-01-19T07:30:09.350Z,13.05
2023-01-19T07:32:36.155Z,15.25
2023-01-19T07:35:03.239Z,14.60
2023-01-19T07:37:30.218Z,14.05
2023-01-19T07:39:57.104Z,14.15
2023-01-19T07:42:23.842Z,12.95
2023-01-19T07:44:51.134Z,13.70
2023-01-19T07:47:17.930Z,15.33
2023-01-19T07:49:44.790Z,12.27
2023-01-19T07:52:11.640Z,14.73
2023-01-19T07:54:38.539Z,13.75
2023-01-19T07:57:05.349Z,13.93
2023-01-19T07:59:32.398Z,13.57
2023-01-19T08:01:59.862Z,14.57
2023-01-19T08:04:28.082Z,14.40
2023-01-19T08:06:56.112Z,14.15
2023-01-19T08:09:23.935Z,13.57
2023-01-19T08:11:50.736Z,12.83
2023-01-19T08:14:18.140Z,12.70
2023-01-19T08:16:45.083Z,13.88
2023-01-19T08:19:11.865Z,12.88
2023-01-19T08:21:39.056Z,12.32
2023-01-19T08:24:06.210Z,13.27
2023-01-19T08:26:35.259Z,12.40
2023-01-19T08:29:04.961Z,13.18
2023-01-19T08:31:32.157Z,11.88
2023-01-19T08:33:59.123Z,13.13
2023-01-19T08:36:26.347Z,13.47
2023-01-19T08:38:53.217Z,12.23
2023-01-19T08:41:20.152Z,12.73
2023-01-19T08:43:46.968Z,11.65
2023-01-19T08:46:17.692Z,12.48
2023-01-19T08:48:53.538Z,12.05
2023-01-19T08:51:21.174Z,12.45
2023-01-19T08:53:48.289Z,12.38
2023-01-19T08:56:15.256Z,12.20
2023-01-19T08:58:46.710Z,12.30
2023-01-19T09:01:20.487Z,12.80
2023-01-19T09:03:47.593Z,11.55
2023-01-19T09:06:19.597Z,12.50
2023-01-19T09:08:47.509Z,12.45
2023-01-19T09:11:16.454Z,13.05
2023-01-19T09:13:43.831Z,13.27
2023-01-19T09:16:13.298Z,12.52
2023-01-19T09:18:40.293Z,11.30
2023-01-19T09:21:08.249Z,12.95
2023-01-19T09:23:34.984Z,10.20
2023-01-19T09:26:03.938Z,11.27
2023-01-19T09:28:30.799Z,11.55
2023-01-19T09:30:57.832Z,11.35
2023-01-19T09:33:24.781Z,10.73
2023-01-19T09:35:52.027Z,10.45
2023-01-19T09:38:19.784Z,10.23
2023-01-19T09:40:52.796Z,10.60
2023-01-19T09:43:19.513Z,9.57
2023-01-19T09:45:57.065Z,10.18
2023-01-19T09:48:26.719Z,8.70
2023-01-19T09:50:55.566Z,10.63
2023-01-19T09:53:35.307Z,10.00
2023-01-19T09:56:02.201Z,11.02
2023-01-19T09:58:29.052Z,9.80
2023-01-19T10:01:08.350Z,11.18
2023-01-19T10:03:41.076Z,8.57
2023-01-19T10:06:11.654Z,10.57
2023-01-19T10:08:51.621Z,11.65
2023-01-19T10:11:52.637Z,11.13
2023-01-19T10:14:36.674Z,9.85
2023-01-19T10:17:15.522Z,10.50
2023-01-19T10:19:47.653Z,8.32
2023-01-19T10:22:22.222Z,10.45
2023-01-19T10:25:00.588Z,9.80
2023-01-19T10:27:33.873Z,9.13
2023-01-19T10:30:01.915Z,8.53
2023-01-19T10:32:35.970Z,10.57
2023-01-19T10:35:21.928Z,10.57
2023-01-19T10:37:49.368Z,9.68
2023-01-19T10:40:27.157Z,9.45
2023-01-19T10:42:54.360Z,9.23
2023-01-19T10:45:29.468Z,9.13
2023-01-19T10:47:59.822Z,9.02
2023-01-19T10:50:32.538Z,9.85
2023-01-19T10:53:02.092Z,10.73
2023-01-19T10:55:38.279Z,10.17
2023-01-19T10:58:07.002Z,10.10
2023-01-19T11:00:42.990Z,10.10
2023-01-19T11:03:29.778Z,10.32
2023-01-19T11:06:18.668Z,13.05
2023-01-19T11:08:47.276Z,12.37
2023-01-19T11:11:14.407Z,11.95
2023-01-19T11:13:42.754Z,12.77
2023-01-19T11:16:22.970Z,10.68
2023-01-19T11:18:53.379Z,11.32
2023-01-19T11:21:26.006Z,12.33
2023-01-19T11:23:55.829Z,11.32
2023-01-19T11:26:50.332Z,10.75
2023-01-19T11:29:27.360Z,11.77
2023-01-19T11:31:57.601Z,11.15
2023-01-19T11:34:32.642Z,9.67
2023-01-19T11:37:03.884Z,10.30
2023-01-19T11:39:32.726Z,9.70
2023-01-19T11:42:02.306Z,10.18
2023-01-19T11:44:45.985Z,9.50
2023-01-19T11:47:18.674Z,11.50
2023-01-19T11:50:06.741Z,10.48
2023-01-19T11:52:33.440Z,9.23
2023-01-19T11:55:17.551Z,9.50
2023-01-19T11:57:49.956Z,10.75
2023-01-19T12:00:43.629Z,10.87
2023-01-19T12:03:23.348Z,7.20
2023-01-19T12:05:56.933Z,9.65
2023-01-19T12:08:30.538Z,8.80
2023-01-19T12:11:00.621Z,8.77
2023-01-19T12:13:27.891Z,9.17
2023-01-19T12:16:17.818Z,10.18
2023-01-19T12:19:05.289Z,8.98
2023-01-19T12:21:32.048Z,8.05
2023-01-19T12:24:10.523Z,8.73
2023-01-19T12:26:46.299Z,8.40
2023-01-19T12:29:18.705Z,9.30
2023-01-19T12:31:45.583Z,8.82
2023-01-19T12:34:38.953Z,8.35
2023-01-19T12:37:08.163Z,10.00
2023-01-19T12:39:35.473Z,9.33
2023-01-19T12:42:29.189Z,9.70
2023-01-19T12:45:08.766Z,9.75
2023-01-19T12:47:36.725Z,7.75
2023-01-19T12:50:16.849Z,7.82
2023-01-19T12:52:58.415Z,8.43
2023-01-19T12:55:58.445Z,8.85
2023-01-19T12:58:25.731Z,9.65
2023-01-19T13:01:14.587Z,8.73
2023-01-19T13:03:44.471Z,9.60
2023-01-19T13:06:11.325Z,8.23
2023-01-19T13:08:59.696Z,8.25
2023-01-19T13:11:29.389Z,7.55
2023-01-19T13:13:58.154Z,8.38
2023-01-19T13:16:27.949Z,8.20
2023-01-19T13:18:57.693Z,8.03
2023-01-19T13:21:31.219Z,7.68
2023-01-19T13:24:03.221Z,8.25
2023-01-19T13:26:35.274Z,6.82
2023-01-19T13:29:16.900Z,7.25
2023-01-19T13:31:45.864Z,8.00
2023-01-19T13:34:14.916Z,8.82
2023-01-19T13:36:47.001Z,7.80
2023-01-19T13:39:44.497Z,7.75
2023-01-19T13:42:17.943Z,6.93
2023-01-19T13:44:53.795Z,6.93
2023-01-19T13:47:28.653Z,7.43
2023-01-19T13:49:59.080Z,7.05
2023-01-19T13:52:28.716Z,7.55
2023-01-19T13:55:02.872Z,7.57
2023-01-19T13:57:30.307Z,7.13
2023-01-19T14:00:12.597Z,7.65
2023-01-19T14:02:54.846Z,8.00
2023-01-19T14:05:24.887Z,7.68
2023-01-19T14:08:01.551Z,6.40
2023-01-19T14:10:28.716Z,7.57
2023-01-19T14:13:00.216Z,7.70
2023-01-19T14:15:28.591Z,8.45
2023-01-19T14:18:11.660Z,7.38
2023-01-19T14:20:39.022Z,7.93
2023-01-19T14:23:27.281Z,8.00
2023-01-19T14:25:54.101Z,8.38
2023-01-19T14:28:43.447Z,6.85
2023-01-19T14:31:25.001Z,8.05
2023-01-19T14:33:54.274Z,8.82
2023-01-19T14:36:39.363Z,8.17
2023-01-19T14:39:16.656Z,8.38
2023-01-19T14:41:52.735Z,7.90
2023-01-19T14:44:29.509Z,9.02
2023-01-19T14:46:58.125Z,9.20
2023-01-19T14:49:47.441Z,9.00
2023-01-19T14:52:37.960Z,9.00
2023-01-19T14:55:08.231Z,9.52
2023-01-19T14:57:36.680Z,8.65
2023-01-19T15:00:17.255Z,9.38
2023-01-19T15:02:45.868Z,9.07
2023-01-19T15:05:13.486Z,8.73
2023-01-19T15:07:43.512Z,10.02
2023-01-19T15:10:36.693Z,9.38
2023-01-19T15:13:04.878Z,9.05
2023-01-19T15:15:33.932Z,9.33
2023-01-19T15:18:04.026Z,8.90
2023-01-19T15:20:30.897Z,8.50
2023-01-19T15:22:57.721Z,9.07
2023-01-19T15:25:28.030Z,7.72
2023-01-19T15:27:59.022Z,8.97
2023-01-19T15:30:30.931Z,8.68
2023-01-19T15:32:58.962Z,9.18
2023-01-19T15:35:28.574Z,9.07
2023-01-19T15:37:55.341Z,9.25
2023-01-19T15:40:23.308Z,12.33
2023-01-19T15:42:50.898Z,12.73
2023-01-19T15:45:38.218Z,11.35
2023-01-19T15:48:07.550Z,9.55
2023-01-19T15:50:37.525Z,9.48
2023-01-19T15:53:04.713Z,9.07
2023-01-19T15:55:31.507Z,8.38
2023-01-19T15:58:01.557Z,8.40
2023-01-19T16:00:30.300Z,8.82
2023-01-19T16:02:57.920Z,8.65
2023-01-19T16:05:37.442Z,9.33
2023-01-19T16:08:09.460Z,9.00
2023-01-19T16:10:37.281Z,8.90
2023-01-19T16:13:04.426Z,9.23
2023-01-19T16:15:31.232Z,9.05
2023-01-19T16:17:58.468Z,8.20
2023-01-19T16:20:25.381Z,7.28
2023-01-19T16:22:52.872Z,8.15
2023-01-19T16:25:21.111Z,8.73
2023-01-19T16:27:48.798Z,7.78
2023-01-19T16:30:19.169Z,7.60
2023-01-19T16:32:46.647Z,8.30
2023-01-19T16:35:15.564Z,8.50
2023-01-19T16:37:42.440Z,8.35
2023-01-19T16:40:09.975Z,8.50
2023-01-19T16:42:36.769Z,7.13
2023-01-19T16:45:03.636Z,8.35
2023-01-19T16:47:30.401Z,7.88
2023-01-19T16:49:57.181Z,7.65
2023-01-19T16:52:23.913Z,8.63
2023-01-19T16:54:54.600Z,6.90
2023-01-19T16:57:21.503Z,7.28
2023-01-19T16:59:48.375Z,8.02
2023-01-19T17:02:15.034Z,7.43
2023-01-19T17:04:41.988Z,7.32
2023-01-19T17:07:08.877Z,7.13
2023-01-19T17:09:36.294Z,7.97
2023-01-19T17:12:04.147Z,7.50
2023-01-19T17:14:31.376Z,8.68
2023-01-19T17:16:59.756Z,7.80
2023-01-19T17:19:28.056Z,8.40
2023-01-19T17:21:55.148Z,8.07
2023-01-19T17:24:22.456Z,8.63
2023-01-19T17:26:50.160Z,7.10
2023-01-19T17:29:17.425Z,6.65
2023-01-19T17:31:45.861Z,6.67
2023-01-19T17:34:13.102Z,7.53
2023-01-19T17:36:41.649Z,6.93
2023-01-19T17:39:14.481Z,6.82
2023-01-19T17:41:42.288Z,7.45
2023-01-19T17:44:09.673Z,7.17
2023-01-19T17:46:38.310Z,6.90
2023-01-19T17:49:07.794Z,6.85
2023-01-19T17:51:36.659Z,6.45
2023-01-19T17:54:05.261Z,6.93
2023-01-19T17:56:37.183Z,6.83
2023-01-19T17:59:06.630Z,7.13
2023-01-19T18:01:37.029Z,7.07
2023-01-19T18:04:04.609Z,7.15
2023-01-19T18:06:32.132Z,7.13
2023-01-19T18:08:59.600Z,8.60
2023-01-19T18:11:26.822Z,6.97
2023-01-19T18:13:54.477Z,8.68
2023-01-19T18:16:24.401Z,8.63
2023-01-19T18:18:54.107Z,10.75
2023-01-19T18:21:23.133Z,10.87
2023-01-19T18:23:51.688Z,11.15
2023-01-19T18:26:22.718Z,11.55
2023-01-19T18:28:50.115Z,11.57
2023-01-19T18:31:19.026Z,13.25
2023-01-19T18:33:48.126Z,10.43
2023-01-19T18:36:16.052Z,8.60
2023-01-19T18:38:43.513Z,8.65
2023-01-19T18:41:16.743Z,7.95
2023-01-19T18:43:43.832Z,8.85
2023-01-19T18:46:11.548Z,7.70
2023-01-19T18:48:39.760Z,9.52
2023-01-19T18:51:09.178Z,9.02
2023-01-19T18:53:37.009Z,8.25
2023-01-19T18:56:05.312Z,8.27
2023-01-19T18:58:37.109Z,7.27
2023-01-19T19:01:04.514Z,8.07
2023-01-19T19:03:31.527Z,8.45
2023-01-19T19:06:02.680Z,8.32
2023-01-19T19:08:29.753Z,8.88
2023-01-19T19:10:56.568Z,8.07
2023-01-19T19:13:23.698Z,8.43
2023-01-19T19:15:52.561Z,8.18
2023-01-19T19:18:19.713Z,9.85
2023-01-19T19:20:46.500Z,10.18
2023-01-19T19:23:13.284Z,11.40
2023-01-19T19:25:40.070Z,8.23
2023-01-19T19:28:07.074Z,6.65
2023-01-19T19:30:35.649Z,7.05
2023-01-19T19:33:02.862Z,8.95
2023-01-19T19:35:29.739Z,7.63
2023-01-19T19:37:57.858Z,7.85
2023-01-19T19:40:26.041Z,8.05
2023-01-19T19:42:52.971Z,7.15
2023-01-19T19:45:20.075Z,7.35
2023-01-19T19:47:47.834Z,6.63
2023-01-19T19:50:14.972Z,6.20
2023-01-19T19:52:42.455Z,6.47
2023-01-19T19:55:10.750Z,6.70
2023-01-19T19:57:37.795Z,6.40
2023-01-19T20:00:05.539Z,6.40
2023-01-19T20:02:36.608Z,7.97
2023-01-19T20:05:04.449Z,8.77
2023-01-19T20:07:31.414Z,9.10
2023-01-19T20:09:58.361Z,9.35
2023-01-19T20:12:25.268Z,11.07
2023-01-19T20:14:52.012Z,8.35
2023-01-19T20:17:19.288Z,6.88
2023-01-19T20:19:47.654Z,6.53
2023-01-19T20:22:14.996Z,7.35
2023-01-19T20:24:41.740Z,7.63
2023-01-19T20:27:08.490Z,8.35
2023-01-19T20:29:35.270Z,9.25
2023-01-19T20:32:02.196Z,6.03
2023-01-19T20:34:33.331Z,6.85
2023-01-19T20:37:01.670Z,6.90
2023-01-19T20:39:33.200Z,7.28
2023-01-19T20:42:00.457Z,6.60
2023-01-19T20:44:27.393Z,5.32
2023-01-19T20:46:55.504Z,5.80
2023-01-19T20:49:22.550Z,5.83
2023-01-19T20:51:51.225Z,5.70
2023-01-19T20:54:20.373Z,5.63
2023-01-19T20:56:47.196Z,5.85
2023-01-19T20:59:14.089Z,5.13
2023-01-19T21:01:41.800Z,5.00
2023-01-19T21:04:09.430Z,4.63
2023-01-19T21:06:36.636Z,4.97
2023-01-19T21:09:03.833Z,4.63
2023-01-19T21:11:30.937Z,5.68
2023-01-19T21:13:57.772Z,5.00
2023-01-19T21:16:30.944Z,4.82
2023-01-19T21:18:57.800Z,4.95
2023-01-19T21:21:30.683Z,5.32
2023-01-19T21:23:59.788Z,4.75
2023-01-19T21:26:29.662Z,5.00
2023-01-19T21:28:58.249Z,4.72
2023-01-19T21:31:27.524Z,6.25
2023-01-19T21:33:55.698Z,5.75
2023-01-19T21:36:23.239Z,6.70
2023-01-19T21:38:51.541Z,6.73
2023-01-19T21:41:18.672Z,7.28
2023-01-19T21:43:46.144Z,8.20
2023-01-19T21:46:14.873Z,7.72
2023-01-19T21:48:42.469Z,7.63
2023-01-19T21:51:09.690Z,8.40
2023-01-19T21:53:36.512Z,7.60
2023-01-19T21:56:06.489Z,6.82
2023-01-19T21:58:33.311Z,6.07
2023-01-19T22:01:06.690Z,6.30
2023-01-19T22:03:33.584Z,5.17
2023-01-19T22:06:09.065Z,5.32
2023-01-19T22:08:36.915Z,4.65
2023-01-19T22:11:14.716Z,5.30
2023-01-19T22:13:41.741Z,5.00
2023-01-19T22:16:12.047Z,4.40
2023-01-19T22:18:41.218Z,4.60
2023-01-19T22:21:16.429Z,3.97
2023-01-19T22:23:43.997Z,4.25
2023-01-19T22:26:11.838Z,3.72
2023-01-19T22:28:38.931Z,3.57
2023-01-19T22:31:17.011Z,3.65
2023-01-19T22:33:44.337Z,4.20
2023-01-19T22:36:11.100Z,3.78
2023-01-19T22:38:39.983Z,4.30
2023-01-19T22:41:14.887Z,4.60
2023-01-19T22:43:41.798Z,4.30
2023-01-19T22:46:08.955Z,4.72
2023-01-19T22:48:36.174Z,4.30
2023-01-19T22:51:03.204Z,4.55
2023-01-19T22:53:33.482Z,6.07
2023-01-19T22:56:00.294Z,4.55
2023-01-19T22:58:27.083Z,4.03
2023-01-19T23:00:53.890Z,4.13
2023-01-19T23:03:20.692Z,4.57
2023-01-19T23:05:47.470Z,4.50
2023-01-19T23:08:14.352Z,4.75
2023-01-19T23:10:41.147Z,4.50
2023-01-19T23:13:07.901Z,4.75
2023-01-19T23:15:35.004Z,5.03
2023-01-19T23:18:01.840Z,5.90
2023-01-19T23:20:28.568Z,5.18
2023-01-19T23:22:55.317Z,5.22
2023-01-19T23:25:22.039Z,4.75
2023-01-19T23:27:48.765Z,4.60
2023-01-19T23:30:15.742Z,5.07
2023-01-19T23:32:47.114Z,4.88
2023-01-19T23:35:14.656Z,3.92
2023-01-19T23:37:41.893Z,4.38
2023-01-19T23:40:11.631Z,3.97
2023-01-19T23:42:38.401Z,4.50
2023-01-19T23:45:05.839Z,4.57
2023-01-19T23:47:34.908Z,4.35
2023-01-19T23:50:05.310Z,4.57
2023-01-19T23:52:32.047Z,4.43
2023-01-19T23:54:58.823Z,4.27
2023-01-19T23:57:25.597Z,4.85
2023-01-19T23:59:52.421Z,4.95
